sensor_id;sensor_type;location;lat;lon;timestamp;pressure;altitude;pressure_sealevel;temperature;humidity
18201;BME280;9226;47.858;9.594;2023-04-08T00:02:24;95342.91;;;8.77;72.57
18201;BME280;9226;47.858;9.594;2023-04-08T00:04:50;95339.66;;;8.74;72.92
18201;BME280;9226;47.858;9.594;2023-04-08T00:07:15;95339.06;;;8.70;73.32
18201;BME280;9226;47.858;9.594;2023-04-08T00:09:40;95351.16;;;8.61;74.56
18201;BME280;9226;47.858;9.594;2023-04-08T00:12:06;95343.56;;;8.57;74.79
18201;BME280;9226;47.858;9.594;2023-04-08T00:14:31;95347.91;;;8.58;74.76
18201;BME280;9226;47.858;9.594;2023-04-08T00:16:57;95338.91;;;8.60;74.52
18201;BME280;9226;47.858;9.594;2023-04-08T00:19:22;95346.09;;;8.58;74.72
18201;BME280;9226;47.858;9.594;2023-04-08T00:21:47;95344.88;;;8.51;75.83
18201;BME280;9226;47.858;9.594;2023-04-08T00:24:13;95340.44;;;8.51;75.60
18201;BME280;9226;47.858;9.594;2023-04-08T00:26:38;95338.97;;;8.47;76.63
18201;BME280;9226;47.858;9.594;2023-04-08T00:29:03;95346.94;;;8.34;79.58
18201;BME280;9226;47.858;9.594;2023-04-08T00:31:29;95342.84;;;8.30;78.83
18201;BME280;9226;47.858;9.594;2023-04-08T00:33:55;95351.66;;;8.42;76.99
18201;BME280;9226;47.858;9.594;2023-04-08T00:36:20;95350.63;;;8.45;76.90
18201;BME280;9226;47.858;9.594;2023-04-08T00:38:46;95346.38;;;8.42;77.78
18201;BME280;9226;47.858;9.594;2023-04-08T00:41:12;95346.09;;;8.34;78.74
18201;BME280;9226;47.858;9.594;2023-04-08T00:43:37;95342.16;;;8.40;77.54
18201;BME280;9226;47.858;9.594;2023-04-08T00:46:03;95346.16;;;8.45;77.33
18201;BME280;9226;47.858;9.594;2023-04-08T00:48:29;95348.09;;;8.43;77.82
18201;BME280;9226;47.858;9.594;2023-04-08T00:50:55;95348.81;;;8.45;77.19
18201;BME280;9226;47.858;9.594;2023-04-08T00:53:21;95350.00;;;8.41;77.49
18201;BME280;9226;47.858;9.594;2023-04-08T00:55:46;95341.91;;;8.43;77.43
18201;BME280;9226;47.858;9.594;2023-04-08T00:58:12;95345.88;;;8.37;78.40
18201;BME280;9226;47.858;9.594;2023-04-08T01:00:41;95346.59;;;8.39;77.73
18201;BME280;9226;47.858;9.594;2023-04-08T01:06:21;95345.16;;;8.35;79.26
18201;BME280;9226;47.858;9.594;2023-04-08T01:08:44;95344.47;;;8.44;77.59
18201;BME280;9226;47.858;9.594;2023-04-08T01:11:12;95344.34;;;8.46;77.59
18201;BME280;9226;47.858;9.594;2023-04-08T01:13:39;95337.94;;;8.37;78.26
18201;BME280;9226;47.858;9.594;2023-04-08T01:16:12;95348.09;;;8.43;77.77
18201;BME280;9226;47.858;9.594;2023-04-08T01:18:38;95339.94;;;8.46;77.18
18201;BME280;9226;47.858;9.594;2023-04-08T01:21:06;95338.84;;;8.49;77.42
18201;BME280;9226;47.858;9.594;2023-04-08T01:24:00;95342.34;;;8.49;77.99
18201;BME280;9226;47.858;9.594;2023-04-08T01:26:24;95341.03;;;8.55;77.30
18201;BME280;9226;47.858;9.594;2023-04-08T01:28:52;95338.50;;;8.54;77.75
18201;BME280;9226;47.858;9.594;2023-04-08T01:31:19;95342.25;;;8.51;77.50
18201;BME280;9226;47.858;9.594;2023-04-08T01:33:46;95344.25;;;8.47;78.54
18201;BME280;9226;47.858;9.594;2023-04-08T01:36:14;95338.72;;;8.50;77.54
18201;BME280;9226;47.858;9.594;2023-04-08T01:38:40;95335.59;;;8.45;78.11
18201;BME280;9226;47.858;9.594;2023-04-08T01:41:07;95337.94;;;8.37;78.74
18201;BME280;9226;47.858;9.594;2023-04-08T01:43:34;95345.44;;;8.43;77.71
18201;BME280;9226;47.858;9.594;2023-04-08T01:46:00;95335.06;;;8.40;77.94
18201;BME280;9226;47.858;9.594;2023-04-08T01:48:27;95332.78;;;8.36;78.81
18201;BME280;9226;47.858;9.594;2023-04-08T01:50:54;95336.34;;;8.34;78.36
18201;BME280;9226;47.858;9.594;2023-04-08T01:53:20;95335.19;;;8.39;77.61
18201;BME280;9226;47.858;9.594;2023-04-08T01:55:48;95339.53;;;8.40;77.63
18201;BME280;9226;47.858;9.594;2023-04-08T01:58:19;95338.78;;;8.38;78.25
18201;BME280;9226;47.858;9.594;2023-04-08T02:00:45;95342.06;;;8.41;78.15
18201;BME280;9226;47.858;9.594;2023-04-08T02:03:12;95341.00;;;8.44;78.14
18201;BME280;9226;47.858;9.594;2023-04-08T02:05:39;95340.06;;;8.45;78.42
18201;BME280;9226;47.858;9.594;2023-04-08T02:08:05;95335.72;;;8.44;78.97
18201;BME280;9226;47.858;9.594;2023-04-08T02:10:30;95344.03;;;8.50;78.15
18201;BME280;9226;47.858;9.594;2023-04-08T02:12:56;95340.19;;;8.55;77.29
18201;BME280;9226;47.858;9.594;2023-04-08T02:15:21;95336.84;;;8.53;77.93
18201;BME280;9226;47.858;9.594;2023-04-08T02:23:13;95341.44;;;8.62;77.56
18201;BME280;9226;47.858;9.594;2023-04-08T02:25:42;95331.34;;;8.67;76.59
18201;BME280;9226;47.858;9.594;2023-04-08T02:28:09;95334.22;;;8.64;77.41
18201;BME280;9226;47.858;9.594;2023-04-08T02:30:36;95336.16;;;8.62;77.75
18201;BME280;9226;47.858;9.594;2023-04-08T02:33:06;95334.69;;;8.58;78.29
18201;BME280;9226;47.858;9.594;2023-04-08T02:35:33;95337.81;;;8.63;77.70
18201;BME280;9226;47.858;9.594;2023-04-08T02:37:59;95337.59;;;8.66;77.13
18201;BME280;9226;47.858;9.594;2023-04-08T02:40:30;95332.41;;;8.64;77.27
18201;BME280;9226;47.858;9.594;2023-04-08T02:42:56;95344.81;;;8.64;77.55
18201;BME280;9226;47.858;9.594;2023-04-08T02:45:26;95338.53;;;8.65;77.26
18201;BME280;9226;47.858;9.594;2023-04-08T02:47:52;95345.63;;;8.64;77.05
18201;BME280;9226;47.858;9.594;2023-04-08T02:50:17;95344.81;;;8.64;76.82
18201;BME280;9226;47.858;9.594;2023-04-08T02:52:43;95347.22;;;8.67;76.18
18201;BME280;9226;47.858;9.594;2023-04-08T02:55:09;95349.13;;;8.65;76.57
18201;BME280;9226;47.858;9.594;2023-04-08T02:57:35;95343.97;;;8.63;76.57
18201;BME280;9226;47.858;9.594;2023-04-08T03:00:03;95340.47;;;8.63;76.35
18201;BME280;9226;47.858;9.594;2023-04-08T03:02:28;95347.44;;;8.64;76.38
18201;BME280;9226;47.858;9.594;2023-04-08T03:04:54;95348.28;;;8.64;76.50
18201;BME280;9226;47.858;9.594;2023-04-08T03:07:19;95351.03;;;8.63;76.42
18201;BME280;9226;47.858;9.594;2023-04-08T03:09:45;95342.03;;;8.65;76.22
18201;BME280;9226;47.858;9.594;2023-04-08T03:12:10;95343.00;;;8.64;76.02
18201;BME280;9226;47.858;9.594;2023-04-08T03:14:35;95343.44;;;8.58;76.51
18201;BME280;9226;47.858;9.594;2023-04-08T03:17:01;95333.22;;;8.54;76.80
18201;BME280;9226;47.858;9.594;2023-04-08T03:19:26;95339.25;;;8.56;76.93
18201;BME280;9226;47.858;9.594;2023-04-08T03:21:51;95341.91;;;8.56;76.91
18201;BME280;9226;47.858;9.594;2023-04-08T03:24:17;95343.44;;;8.58;76.72
18201;BME280;9226;47.858;9.594;2023-04-08T03:26:42;95341.16;;;8.54;76.98
18201;BME280;9226;47.858;9.594;2023-04-08T03:29:07;95340.81;;;8.58;75.97
18201;BME280;9226;47.858;9.594;2023-04-08T03:31:34;95341.38;;;8.50;77.13
18201;BME280;9226;47.858;9.594;2023-04-08T03:34:00;95340.44;;;8.51;76.50
18201;BME280;9226;47.858;9.594;2023-04-08T03:36:25;95340.78;;;8.47;77.59
18201;BME280;9226;47.858;9.594;2023-04-08T03:38:51;95346.09;;;8.34;78.11
18201;BME280;9226;47.858;9.594;2023-04-08T03:41:16;95347.47;;;8.40;77.47
18201;BME280;9226;47.858;9.594;2023-04-08T03:43:41;95352.84;;;8.38;77.89
18201;BME280;9226;47.858;9.594;2023-04-08T03:46:07;95349.13;;;8.41;77.39
18201;BME280;9226;47.858;9.594;2023-04-08T03:48:32;95344.25;;;8.47;76.85
18201;BME280;9226;47.858;9.594;2023-04-08T03:50:58;95354.28;;;8.42;77.35
18201;BME280;9226;47.858;9.594;2023-04-08T03:53:23;95349.75;;;8.44;77.39
18201;BME280;9226;47.858;9.594;2023-04-08T03:55:49;95347.00;;;8.46;77.37
18201;BME280;9226;47.858;9.594;2023-04-08T03:58:17;95348.09;;;8.43;78.11
18201;BME280;9226;47.858;9.594;2023-04-08T04:00:42;95351.88;;;8.39;78.43
18201;BME280;9226;47.858;9.594;2023-04-08T04:03:07;95351.47;;;8.45;77.41
18201;BME280;9226;47.858;9.594;2023-04-08T04:05:34;95357.38;;;8.36;78.20
18201;BME280;9226;47.858;9.594;2023-04-08T04:08:01;95359.31;;;8.34;78.27
18201;BME280;9226;47.858;9.594;2023-04-08T04:10:26;95357.78;;;8.43;77.11
18201;BME280;9226;47.858;9.594;2023-04-08T04:12:51;95350.94;;;8.40;77.77
18201;BME280;9226;47.858;9.594;2023-04-08T04:15:17;95354.41;;;8.41;78.04
18201;BME280;9226;47.858;9.594;2023-04-08T04:17:42;95363.72;;;8.46;77.26
18201;BME280;9226;47.858;9.594;2023-04-08T04:20:08;95356.53;;;8.48;77.50
18201;BME280;9226;47.858;9.594;2023-04-08T04:22:33;95370.47;;;8.50;77.36
18201;BME280;9226;47.858;9.594;2023-04-08T04:24:59;95369.03;;;8.46;78.25
18201;BME280;9226;47.858;9.594;2023-04-08T04:27:24;95373.56;;;8.44;78.43
18201;BME280;9226;47.858;9.594;2023-04-08T04:29:50;95370.47;;;8.50;77.31
18201;BME280;9226;47.858;9.594;2023-04-08T04:32:15;95373.09;;;8.50;77.57
18201;BME280;9226;47.858;9.594;2023-04-08T04:34:40;95373.09;;;8.50;77.56
18201;BME280;9226;47.858;9.594;2023-04-08T04:37:06;95376.63;;;8.51;77.54
18201;BME280;9226;47.858;9.594;2023-04-08T04:39:31;95378.28;;;8.52;77.35
18201;BME280;9226;47.858;9.594;2023-04-08T04:41:56;95374.09;;;8.49;77.33
18201;BME280;9226;47.858;9.594;2023-04-08T04:44:22;95372.88;;;8.54;76.91
18201;BME280;9226;47.858;9.594;2023-04-08T04:46:48;95381.25;;;8.47;77.56
18201;BME280;9226;47.858;9.594;2023-04-08T04:49:13;95377.66;;;8.48;77.37
18201;BME280;9226;47.858;9.594;2023-04-08T04:51:38;95381.25;;;8.47;77.34
18201;BME280;9226;47.858;9.594;2023-04-08T04:54:04;95379.59;;;8.46;77.35
18201;BME280;9226;47.858;9.594;2023-04-08T04:56:29;95390.81;;;8.37;77.94
18201;BME280;9226;47.858;9.594;2023-04-08T04:58:55;95385.00;;;8.45;76.88
18201;BME280;9226;47.858;9.594;2023-04-08T05:01:20;95390.41;;;8.43;77.04
18201;BME280;9226;47.858;9.594;2023-04-08T05:03:45;95385.72;;;8.47;76.60
18201;BME280;9226;47.858;9.594;2023-04-08T05:06:11;95389.13;;;8.36;78.14
18201;BME280;9226;47.858;9.594;2023-04-08T05:08:36;95387.13;;;8.40;77.40
18201;BME280;9226;47.858;9.594;2023-04-08T05:11:02;95392.97;;;8.32;78.31
18201;BME280;9226;47.858;9.594;2023-04-08T05:13:28;95390.19;;;8.33;77.83
18201;BME280;9226;47.858;9.594;2023-04-08T05:15:53;95397.44;;;8.19;80.14
18201;BME280;9226;47.858;9.594;2023-04-08T05:18:19;95400.56;;;8.24;79.54
18201;BME280;9226;47.858;9.594;2023-04-08T05:20:44;95403.97;;;8.26;79.03
18201;BME280;9226;47.858;9.594;2023-04-08T05:23:10;95400.56;;;8.37;77.66
18201;BME280;9226;47.858;9.594;2023-04-08T05:25:36;95408.94;;;8.30;78.51
18201;BME280;9226;47.858;9.594;2023-04-08T05:28:02;95412.19;;;8.34;77.97
18201;BME280;9226;47.858;9.594;2023-04-08T05:30:27;95405.03;;;8.23;79.12
18201;BME280;9226;47.858;9.594;2023-04-08T05:32:53;95409.47;;;8.23;79.21
18201;BME280;9226;47.858;9.594;2023-04-08T05:35:18;95408.16;;;8.28;78.74
18201;BME280;9226;47.858;9.594;2023-04-08T05:37:44;95404.69;;;8.28;78.35
18201;BME280;9226;47.858;9.594;2023-04-08T05:40:09;95407.38;;;8.15;80.11
18201;BME280;9226;47.858;9.594;2023-04-08T05:42:35;95414.25;;;8.18;79.61
18201;BME280;9226;47.858;9.594;2023-04-08T05:45:00;95404.19;;;8.23;79.87
18201;BME280;9226;47.858;9.594;2023-04-08T05:47:26;95418.13;;;8.25;79.42
18201;BME280;9226;47.858;9.594;2023-04-08T05:49:51;95422.91;;;8.20;80.09
18201;BME280;9226;47.858;9.594;2023-04-08T05:52:17;95424.78;;;8.30;78.94
18201;BME280;9226;47.858;9.594;2023-04-08T05:54:43;95426.13;;;8.36;78.45
18201;BME280;9226;47.858;9.594;2023-04-08T05:57:08;95429.75;;;8.35;79.33
18201;BME280;9226;47.858;9.594;2023-04-08T05:59:34;95426.56;;;8.30;79.96
18201;BME280;9226;47.858;9.594;2023-04-08T06:01:59;95426.34;;;8.33;79.39
18201;BME280;9226;47.858;9.594;2023-04-08T06:04:24;95432.50;;;8.33;79.17
18201;BME280;9226;47.858;9.594;2023-04-08T06:06:50;95435.09;;;8.09;82.12
18201;BME280;9226;47.858;9.594;2023-04-08T06:09:15;95439.75;;;8.06;81.78
18201;BME280;9226;47.858;9.594;2023-04-08T06:11:41;95437.72;;;8.09;80.68
18201;BME280;9226;47.858;9.594;2023-04-08T06:14:06;95437.16;;;7.93;82.09
18201;BME280;9226;47.858;9.594;2023-04-08T06:16:32;95440.28;;;7.98;81.36
18201;BME280;9226;47.858;9.594;2023-04-08T06:18:57;95448.22;;;7.98;81.30
18201;BME280;9226;47.858;9.594;2023-04-08T06:21:23;95445.88;;;8.06;80.63
18201;BME280;9226;47.858;9.594;2023-04-08T06:23:48;95441.78;;;8.02;81.58
18201;BME280;9226;47.858;9.594;2023-04-08T06:26:13;95447.09;;;7.89;82.85
18201;BME280;9226;47.858;9.594;2023-04-08T06:28:39;95441.28;;;7.97;81.67
18201;BME280;9226;47.858;9.594;2023-04-08T06:31:04;95445.88;;;8.06;80.80
18201;BME280;9226;47.858;9.594;2023-04-08T06:33:30;95452.84;;;8.07;80.83
18201;BME280;9226;47.858;9.594;2023-04-08T06:36:03;95454.78;;;7.79;84.18
18201;BME280;9226;47.858;9.594;2023-04-08T06:38:29;95451.84;;;7.84;83.36
18201;BME280;9226;47.858;9.594;2023-04-08T06:40:55;95453.75;;;7.82;83.61
18201;BME280;9226;47.858;9.594;2023-04-08T06:43:20;95453.13;;;7.78;84.32
18201;BME280;9226;47.858;9.594;2023-04-08T06:45:46;95458.81;;;7.85;83.43
18201;BME280;9226;47.858;9.594;2023-04-08T06:48:11;95453.50;;;7.98;82.19
18201;BME280;9226;47.858;9.594;2023-04-08T06:50:36;95457.63;;;8.02;82.50
18201;BME280;9226;47.858;9.594;2023-04-08T06:53:02;95457.75;;;7.88;84.31
18201;BME280;9226;47.858;9.594;2023-04-08T06:55:27;95460.44;;;7.75;85.10
18201;BME280;9226;47.858;9.594;2023-04-08T06:57:53;95461.97;;;7.90;84.68
18201;BME280;9226;47.858;9.594;2023-04-08T07:00:18;95465.34;;;8.05;83.45
18201;BME280;9226;47.858;9.594;2023-04-08T07:02:43;95461.06;;;8.15;83.26
18201;BME280;9226;47.858;9.594;2023-04-08T07:05:09;95457.88;;;8.23;82.87
18201;BME280;9226;47.858;9.594;2023-04-08T07:07:35;95457.78;;;8.25;82.81
18201;BME280;9226;47.858;9.594;2023-04-08T07:10:00;95463.22;;;8.10;82.01
18201;BME280;9226;47.858;9.594;2023-04-08T07:12:25;95459.09;;;8.19;82.43
18201;BME280;9226;47.858;9.594;2023-04-08T07:14:51;95458.50;;;8.27;82.44
18201;BME280;9226;47.858;9.594;2023-04-08T07:17:17;95458.94;;;8.33;82.20
18201;BME280;9226;47.858;9.594;2023-04-08T07:19:42;95458.06;;;8.33;82.32
18201;BME280;9226;47.858;9.594;2023-04-08T07:22:08;95466.69;;;8.61;80.69
18201;BME280;9226;47.858;9.594;2023-04-08T07:24:33;95467.13;;;8.55;81.13
18201;BME280;9226;47.858;9.594;2023-04-08T07:26:59;95472.19;;;8.21;82.00
18201;BME280;9226;47.858;9.594;2023-04-08T07:29:25;95478.56;;;8.42;80.74
18201;BME280;9226;47.858;9.594;2023-04-08T07:31:52;95477.75;;;8.29;80.86
18201;BME280;9226;47.858;9.594;2023-04-08T07:34:17;95478.56;;;8.42;80.23
18201;BME280;9226;47.858;9.594;2023-04-08T07:36:43;95479.09;;;8.34;80.53
18201;BME280;9226;47.858;9.594;2023-04-08T07:39:08;95476.25;;;8.38;79.83
18201;BME280;9226;47.858;9.594;2023-04-08T07:41:33;95481.19;;;8.42;79.74
18201;BME280;9226;47.858;9.594;2023-04-08T07:43:59;95484.72;;;8.30;80.36
18201;BME280;9226;47.858;9.594;2023-04-08T07:46:25;95475.41;;;8.37;79.90
18201;BME280;9226;47.858;9.594;2023-04-08T07:48:50;95482.03;;;8.43;79.61
18201;BME280;9226;47.858;9.594;2023-04-08T07:51:16;95477.84;;;8.40;79.57
18201;BME280;9226;47.858;9.594;2023-04-08T07:53:41;95481.63;;;8.49;80.02
18201;BME280;9226;47.858;9.594;2023-04-08T07:56:11;95482.19;;;8.41;79.47
18201;BME280;9226;47.858;9.594;2023-04-08T07:58:37;95488.78;;;8.23;80.92
18201;BME280;9226;47.858;9.594;2023-04-08T08:01:12;95484.69;;;8.43;80.25
18201;BME280;9226;47.858;9.594;2023-04-08T08:03:38;95489.66;;;8.47;80.55
18201;BME280;9226;47.858;9.594;2023-04-08T08:06:03;95487.47;;;8.41;79.97
18201;BME280;9226;47.858;9.594;2023-04-08T08:08:29;95482.38;;;8.51;80.18
18201;BME280;9226;47.858;9.594;2023-04-08T08:10:54;95492.09;;;8.50;79.29
18201;BME280;9226;47.858;9.594;2023-04-08T08:13:19;95494.19;;;8.58;79.19
18201;BME280;9226;47.858;9.594;2023-04-08T08:15:46;95499.03;;;8.64;78.78
18201;BME280;9226;47.858;9.594;2023-04-08T08:18:11;95501.28;;;8.58;78.69
18201;BME280;9226;47.858;9.594;2023-04-08T08:20:36;95504.38;;;8.51;78.77
18201;BME280;9226;47.858;9.594;2023-04-08T08:23:02;95501.63;;;8.40;78.54
18201;BME280;9226;47.858;9.594;2023-04-08T08:25:27;95509.69;;;8.26;79.71
18201;BME280;9226;47.858;9.594;2023-04-08T08:27:52;95509.69;;;8.26;79.65
18201;BME280;9226;47.858;9.594;2023-04-08T08:30:19;95506.41;;;8.48;79.31
18201;BME280;9226;47.858;9.594;2023-04-08T08:32:46;95512.84;;;8.31;79.76
18201;BME280;9226;47.858;9.594;2023-04-08T08:35:11;95510.38;;;8.54;79.22
18201;BME280;9226;47.858;9.594;2023-04-08T08:37:36;95512.31;;;8.76;78.64
18201;BME280;9226;47.858;9.594;2023-04-08T08:40:02;95511.72;;;8.72;78.76
18201;BME280;9226;47.858;9.594;2023-04-08T08:42:28;95513.34;;;8.62;78.99
18201;BME280;9226;47.858;9.594;2023-04-08T08:44:53;95517.44;;;8.66;78.57
18201;BME280;9226;47.858;9.594;2023-04-08T08:47:18;95521.34;;;8.73;78.09
18201;BME280;9226;47.858;9.594;2023-04-08T08:49:44;95521.22;;;8.75;78.20
18201;BME280;9226;47.858;9.594;2023-04-08T08:52:10;95524.16;;;8.59;78.54
18201;BME280;9226;47.858;9.594;2023-04-08T08:54:39;95523.59;;;8.54;78.63
18201;BME280;9226;47.858;9.594;2023-04-08T08:57:15;95527.91;;;8.67;78.67
18201;BME280;9226;47.858;9.594;2023-04-08T08:59:41;95527.69;;;8.95;78.08
18201;BME280;9226;47.858;9.594;2023-04-08T09:02:23;95528.38;;;9.10;78.13
18201;BME280;9226;47.858;9.594;2023-04-08T09:04:59;95527.13;;;9.27;77.23
18201;BME280;9226;47.858;9.594;2023-04-08T09:07:27;95530.00;;;9.23;76.47
18201;BME280;9226;47.858;9.594;2023-04-08T09:09:54;95538.22;;;9.32;76.33
18201;BME280;9226;47.858;9.594;2023-04-08T09:12:20;95525.69;;;9.34;75.87
18201;BME280;9226;47.858;9.594;2023-04-08T09:14:46;95537.31;;;9.20;75.36
18201;BME280;9226;47.858;9.594;2023-04-08T09:17:12;95531.78;;;9.23;75.80
18201;BME280;9226;47.858;9.594;2023-04-08T09:19:38;95536.75;;;9.28;75.55
18201;BME280;9226;47.858;9.594;2023-04-08T09:22:10;95540.22;;;9.28;75.15
18201;BME280;9226;47.858;9.594;2023-04-08T09:24:36;95533.72;;;9.21;75.42
18201;BME280;9226;47.858;9.594;2023-04-08T09:27:03;95539.97;;;9.20;75.46
18201;BME280;9226;47.858;9.594;2023-04-08T09:29:29;95537.72;;;9.27;75.61
18201;BME280;9226;47.858;9.594;2023-04-08T09:31:59;95538.22;;;9.32;75.58
18201;BME280;9226;47.858;9.594;2023-04-08T09:34:25;95546.13;;;9.20;75.96
18201;BME280;9226;47.858;9.594;2023-04-08T09:36:52;95546.13;;;9.20;76.20
18201;BME280;9226;47.858;9.594;2023-04-08T09:39:18;95534.94;;;9.28;75.84
18201;BME280;9226;47.858;9.594;2023-04-08T09:41:47;95541.81;;;9.31;76.26
18201;BME280;9226;47.858;9.594;2023-04-08T09:44:14;95536.56;;;9.42;75.92
18201;BME280;9226;47.858;9.594;2023-04-08T09:49:18;95535.50;;;9.56;75.67
18201;BME280;9226;47.858;9.594;2023-04-08T09:51:53;95536.53;;;9.66;75.91
18201;BME280;9226;47.858;9.594;2023-04-08T09:55:11;95541.22;;;9.74;75.71
18201;BME280;9226;47.858;9.594;2023-04-08T09:57:16;95531.38;;;9.87;75.86
18201;BME280;9226;47.858;9.594;2023-04-08T09:59:51;95533.44;;;10.06;75.46
18201;BME280;9226;47.858;9.594;2023-04-08T10:02:28;95538.28;;;10.24;75.47
18201;BME280;9226;47.858;9.594;2023-04-08T10:04:58;95537.34;;;10.47;75.05
18201;BME280;9226;47.858;9.594;2023-04-08T10:07:24;95542.47;;;10.72;74.14
18201;BME280;9226;47.858;9.594;2023-04-08T10:09:50;95532.34;;;10.88;73.42
18201;BME280;9226;47.858;9.594;2023-04-08T10:12:15;95538.28;;;11.13;72.50
18201;BME280;9226;47.858;9.594;2023-04-08T10:14:41;95539.44;;;11.31;71.51
18201;BME280;9226;47.858;9.594;2023-04-08T10:17:26;95539.03;;;11.15;71.03
18201;BME280;9226;47.858;9.594;2023-04-08T10:19:52;95542.84;;;11.22;70.52
18201;BME280;9226;47.858;9.594;2023-04-08T10:22:45;95534.75;;;10.80;71.49
18201;BME280;9226;47.858;9.594;2023-04-08T10:27:43;95532.44;;;10.75;71.42
18201;BME280;9226;47.858;9.594;2023-04-08T10:32:50;95537.16;;;10.04;73.16
18201;BME280;9226;47.858;9.594;2023-04-08T10:35:16;95541.75;;;10.13;73.33
18201;BME280;9226;47.858;9.594;2023-04-08T10:37:42;95542.00;;;9.99;74.88
18201;BME280;9226;47.858;9.594;2023-04-08T10:40:18;95541.28;;;9.96;73.84
18201;BME280;9226;47.858;9.594;2023-04-08T10:42:44;95536.34;;;10.03;73.86
18201;BME280;9226;47.858;9.594;2023-04-08T10:45:09;95538.16;;;10.14;73.46
18201;BME280;9226;47.858;9.594;2023-04-08T10:47:35;95531.50;;;10.20;73.38
18201;BME280;9226;47.858;9.594;2023-04-08T10:50:11;95545.16;;;10.26;73.42
18201;BME280;9226;47.858;9.594;2023-04-08T10:52:53;95536.97;;;10.52;72.41
18201;BME280;9226;47.858;9.594;2023-04-08T10:55:22;95539.63;;;10.41;73.56
18201;BME280;9226;47.858;9.594;2023-04-08T10:57:52;95536.72;;;10.55;72.20
18201;BME280;9226;47.858;9.594;2023-04-08T11:00:37;95536.38;;;10.60;71.72
18201;BME280;9226;47.858;9.594;2023-04-08T11:03:07;95534.91;;;10.56;72.50
18201;BME280;9226;47.858;9.594;2023-04-08T11:05:34;95527.03;;;10.88;72.36
18201;BME280;9226;47.858;9.594;2023-04-08T11:08:01;95535.50;;;10.71;70.78
18201;BME280;9226;47.858;9.594;2023-04-08T11:10:27;95531.19;;;11.02;70.43
18201;BME280;9226;47.858;9.594;2023-04-08T11:12:56;95532.66;;;10.95;70.73
18201;BME280;9226;47.858;9.594;2023-04-08T11:15:25;95534.53;;;10.60;72.06
18201;BME280;9226;47.858;9.594;2023-04-08T11:17:51;95530.94;;;10.61;72.58
18201;BME280;9226;47.858;9.594;2023-04-08T11:20:17;95533.31;;;10.76;72.44
18201;BME280;9226;47.858;9.594;2023-04-08T11:22:43;95530.84;;;10.52;72.40
18201;BME280;9226;47.858;9.594;2023-04-08T11:25:10;95529.22;;;10.72;71.37
18201;BME280;9226;47.858;9.594;2023-04-08T11:27:36;95525.59;;;10.73;71.45
18201;BME280;9226;47.858;9.594;2023-04-08T11:30:04;95525.00;;;10.80;71.35
18201;BME280;9226;47.858;9.594;2023-04-08T11:32:31;95533.09;;;10.67;71.14
18201;BME280;9226;47.858;9.594;2023-04-08T11:34:59;95531.41;;;10.55;72.50
18201;BME280;9226;47.858;9.594;2023-04-08T11:37:26;95529.94;;;10.62;72.47
18201;BME280;9226;47.858;9.594;2023-04-08T11:40:00;95535.25;;;10.62;72.58
18201;BME280;9226;47.858;9.594;2023-04-08T11:42:30;95536.72;;;10.66;72.19
18201;BME280;9226;47.858;9.594;2023-04-08T11:44:56;95534.31;;;10.52;72.54
18201;BME280;9226;47.858;9.594;2023-04-08T11:47:30;95532.97;;;10.46;74.02
18201;BME280;9226;47.858;9.594;2023-04-08T11:49:56;95523.94;;;10.60;72.65
18201;BME280;9226;47.858;9.594;2023-04-08T11:52:21;95528.25;;;10.73;72.27
18201;BME280;9226;47.858;9.594;2023-04-08T11:54:47;95536.00;;;10.64;71.96
18201;BME280;9226;47.858;9.594;2023-04-08T11:57:12;95531.53;;;10.65;72.14
18201;BME280;9226;47.858;9.594;2023-04-08T11:59:39;95526.06;;;10.78;71.88
18201;BME280;9226;47.858;9.594;2023-04-08T12:02:05;95534.44;;;10.50;72.83
18201;BME280;9226;47.858;9.594;2023-04-08T12:04:30;95533.59;;;10.50;73.54
18201;BME280;9226;47.858;9.594;2023-04-08T12:06:56;95532.63;;;10.40;73.85
18201;BME280;9226;47.858;9.594;2023-04-08T12:09:21;95535.00;;;10.88;73.21
18201;BME280;9226;47.858;9.594;2023-04-08T12:11:47;95534.75;;;10.80;72.10
18201;BME280;9226;47.858;9.594;2023-04-08T12:14:13;95527.97;;;10.87;71.60
18201;BME280;9226;47.858;9.594;2023-04-08T12:16:38;95534.50;;;10.83;71.57
18201;BME280;9226;47.858;9.594;2023-04-08T12:19:04;95536.41;;;10.92;71.28
18201;BME280;9226;47.858;9.594;2023-04-08T12:21:29;95535.53;;;11.03;70.43
18201;BME280;9226;47.858;9.594;2023-04-08T12:23:56;95540.50;;;10.96;70.51
18201;BME280;9226;47.858;9.594;2023-04-08T12:26:21;95543.03;;;10.98;71.01
18201;BME280;9226;47.858;9.594;2023-04-08T12:28:46;95536.63;;;11.00;70.55
18201;BME280;9226;47.858;9.594;2023-04-08T12:31:12;95538.53;;;11.10;70.45
18201;BME280;9226;47.858;9.594;2023-04-08T12:33:37;95536.22;;;11.16;70.41
18201;BME280;9226;47.858;9.594;2023-04-08T12:36:03;95538.16;;;11.14;70.54
18201;BME280;9226;47.858;9.594;2023-04-08T12:38:28;95535.00;;;11.20;70.80
18201;BME280;9226;47.858;9.594;2023-04-08T12:40:54;95543.13;;;11.40;71.37
18201;BME280;9226;47.858;9.594;2023-04-08T12:43:20;95535.44;;;11.58;71.24
18201;BME280;9226;47.858;9.594;2023-04-08T12:45:46;95532.03;;;11.67;71.46
18201;BME280;9226;47.858;9.594;2023-04-08T12:48:13;95534.78;;;11.87;71.11
18201;BME280;9226;47.858;9.594;2023-04-08T12:50:38;95538.59;;;12.05;71.35
18201;BME280;9226;47.858;9.594;2023-04-08T12:53:03;95532.22;;;12.18;70.22
18201;BME280;9226;47.858;9.594;2023-04-08T12:55:29;95525.56;;;12.43;69.41
18201;BME280;9226;47.858;9.594;2023-04-08T12:57:54;95527.56;;;12.51;68.59
18201;BME280;9226;47.858;9.594;2023-04-08T13:00:19;95530.53;;;12.17;67.92
18201;BME280;9226;47.858;9.594;2023-04-08T13:02:45;95527.81;;;12.38;68.42
18201;BME280;9226;47.858;9.594;2023-04-08T13:05:11;95528.72;;;12.27;67.65
18201;BME280;9226;47.858;9.594;2023-04-08T13:07:36;95531.03;;;11.89;69.18
18201;BME280;9226;47.858;9.594;2023-04-08T13:10:02;95529.56;;;11.97;68.80
18201;BME280;9226;47.858;9.594;2023-04-08T13:12:28;95531.03;;;11.68;69.49
18201;BME280;9226;47.858;9.594;2023-04-08T13:14:54;95527.34;;;11.81;69.52
18201;BME280;9226;47.858;9.594;2023-04-08T13:17:20;95539.50;;;11.62;70.34
18201;BME280;9226;47.858;9.594;2023-04-08T13:19:45;95531.53;;;11.62;70.74
18201;BME280;9226;47.858;9.594;2023-04-08T13:22:12;95531.53;;;11.62;70.33
18201;BME280;9226;47.858;9.594;2023-04-08T13:24:38;95533.69;;;11.47;70.50
18201;BME280;9226;47.858;9.594;2023-04-08T13:27:04;95528.44;;;11.57;70.91
18201;BME280;9226;47.858;9.594;2023-04-08T13:29:29;95534.06;;;11.43;70.77
18201;BME280;9226;47.858;9.594;2023-04-08T13:31:55;95524.69;;;11.81;69.50
18201;BME280;9226;47.858;9.594;2023-04-08T13:34:20;95527.03;;;11.95;66.71